sensor_id;sensor_type;location;lat;lon;timestamp;P1;durP1;ratioP1;P2;durP2;ratioP2
80910;SDS011;70359;51.420;7.032;2023-06-10T00:00:44;2.4;;;2.2;;
80910;SDS011;70359;51.420;7.032;2023-06-10T00:03:10;2.6;;;2.4;;
80910;SDS011;70359;51.420;7.032;2023-06-10T00:05:35;2.6;;;2.4;;
80910;SDS011;70359;51.420;7.032;2023-06-10T00:07:59;4.1;;;2.4;;
80910;SDS011;70359;51.420;7.032;2023-06-10T00:10:24;4.1;;;2.4;;
80910;SDS011;70359;51.420;7.032;2023-06-10T00:12:49;2.8;;;2.4;;
80910;SDS011;70359;51.420;7.032;2023-06-10T00:15:14;2.8;;;2.4;;
80910;SDS011;70359;51.420;7.032;2023-06-10T00:17:39;3.2;;;2.9;;
80910;SDS011;70359;51.420;7.032;2023-06-10T00:20:05;3.2;;;2.9;;
80910;SDS011;70359;51.420;7.032;2023-06-10T00:22:29;3.7;;;2.7;;
80910;SDS011;70359;51.420;7.032;2023-06-10T00:24:55;3.7;;;2.7;;
80910;SDS011;70359;51.420;7.032;2023-06-10T00:27:19;3;;;2.4;;
80910;SDS011;70359;51.420;7.032;2023-06-10T00:29:44;3;;;2.4;;
80910;SDS011;70359;51.420;7.032;2023-06-10T00:32:10;3;;;2.6;;
80910;SDS011;70359;51.420;7.032;2023-06-10T00:34:34;3;;;2.6;;
80910;SDS011;70359;51.420;7.032;2023-06-10T00:36:59;2.9;;;2.7;;
80910;SDS011;70359;51.420;7.032;2023-06-10T00:39:24;2.9;;;2.7;;
80910;SDS011;70359;51.420;7.032;2023-06-10T00:41:50;2.6;;;2.4;;
80910;SDS011;70359;51.420;7.032;2023-06-10T00:44:19;2.6;;;2.4;;
80910;SDS011;70359;51.420;7.032;2023-06-10T00:46:40;3;;;2.5;;
80910;SDS011;70359;51.420;7.032;2023-06-10T00:49:05;3;;;2.5;;
80910;SDS011;70359;51.420;7.032;2023-06-10T00:51:30;4;;;2.5;;
80910;SDS011;70359;51.420;7.032;2023-06-10T00:53:59;4;;;2.5;;
80910;SDS011;70359;51.420;7.032;2023-06-10T00:56:20;4;;;2.5;;
80910;SDS011;70359;51.420;7.032;2023-06-10T00:58:45;2.6;;;2.4;;
80910;SDS011;70359;51.420;7.032;2023-06-10T01:01:10;2.6;;;2.4;;
80910;SDS011;70359;51.420;7.032;2023-06-10T01:03:38;2.6;;;2.2;;
80910;SDS011;70359;51.420;7.032;2023-06-10T01:06:06;2.6;;;2.2;;
80910;SDS011;70359;51.420;7.032;2023-06-10T01:08:28;4.1;;;2.9;;
80910;SDS011;70359;51.420;7.032;2023-06-10T01:10:53;4.1;;;2.9;;
80910;SDS011;70359;51.420;7.032;2023-06-10T01:13:15;2.9;;;2.7;;
80910;SDS011;70359;51.420;7.032;2023-06-10T01:15:44;2.9;;;2.7;;
80910;SDS011;70359;51.420;7.032;2023-06-10T01:18:06;2.9;;;2.7;;
80910;SDS011;70359;51.420;7.032;2023-06-10T01:20:31;2.9;;;2.7;;
80910;SDS011;70359;51.420;7.032;2023-06-10T01:22:55;2.8;;;2.5;;
80910;SDS011;70359;51.420;7.032;2023-06-10T01:25:20;2.8;;;2.5;;
80910;SDS011;70359;51.420;7.032;2023-06-10T01:27:46;2.8;;;2.6;;
80910;SDS011;70359;51.420;7.032;2023-06-10T01:30:14;2.8;;;2.6;;
80910;SDS011;70359;51.420;7.032;2023-06-10T01:32:40;3.1;;;2.9;;
80910;SDS011;70359;51.420;7.032;2023-06-10T01:35:01;3.1;;;2.9;;
80910;SDS011;70359;51.420;7.032;2023-06-10T01:37:30;2.7;;;2.5;;
80910;SDS011;70359;51.420;7.032;2023-06-10T01:39:50;2.7;;;2.5;;
80910;SDS011;70359;51.420;7.032;2023-06-10T01:42:15;3.4;;;2.8;;
80910;SDS011;70359;51.420;7.032;2023-06-10T01:44:40;3.4;;;2.8;;
80910;SDS011;70359;51.420;7.032;2023-06-10T01:47:05;2.6;;;2.4;;
80910;SDS011;70359;51.420;7.032;2023-06-10T01:49:30;2.6;;;2.4;;
80910;SDS011;70359;51.420;7.032;2023-06-10T01:51:55;2.7;;;2.5;;
80910;SDS011;70359;51.420;7.032;2023-06-10T01:54:20;2.7;;;2.5;;
80910;SDS011;70359;51.420;7.032;2023-06-10T01:56:45;3.1;;;2.8;;
80910;SDS011;70359;51.420;7.032;2023-06-10T01:59:10;3.1;;;2.8;;
80910;SDS011;70359;51.420;7.032;2023-06-10T02:01:35;2.9;;;2.7;;
80910;SDS011;70359;51.420;7.032;2023-06-10T02:04:00;2.9;;;2.7;;
80910;SDS011;70359;51.420;7.032;2023-06-10T02:06:29;2.9;;;2.7;;
80910;SDS011;70359;51.420;7.032;2023-06-10T02:08:50;2.9;;;2.7;;
80910;SDS011;70359;51.420;7.032;2023-06-10T02:11:15;2.9;;;2.7;;
80910;SDS011;70359;51.420;7.032;2023-06-10T02:13:40;3.6;;;3.3;;
80910;SDS011;70359;51.420;7.032;2023-06-10T02:16:09;3.6;;;3.3;;
80910;SDS011;70359;51.420;7.032;2023-06-10T02:18:34;3;;;2.8;;
80910;SDS011;70359;51.420;7.032;2023-06-10T02:20:55;3;;;2.8;;
80910;SDS011;70359;51.420;7.032;2023-06-10T02:23:20;3.2;;;2.9;;
80910;SDS011;70359;51.420;7.032;2023-06-10T02:25:45;3.2;;;2.9;;
80910;SDS011;70359;51.420;7.032;2023-06-10T02:28:10;2.9;;;2.7;;
80910;SDS011;70359;51.420;7.032;2023-06-10T02:30:35;2.9;;;2.7;;
80910;SDS011;70359;51.420;7.032;2023-06-10T02:33:00;3.9;;;2.6;;
80910;SDS011;70359;51.420;7.032;2023-06-10T02:35:25;3.9;;;2.6;;
80910;SDS011;70359;51.420;7.032;2023-06-10T02:37:50;3.4;;;3.1;;
80910;SDS011;70359;51.420;7.032;2023-06-10T02:40:15;3.4;;;3.1;;
80910;SDS011;70359;51.420;7.032;2023-06-10T02:42:44;2.9;;;2.7;;
80910;SDS011;70359;51.420;7.032;2023-06-10T02:45:06;2.9;;;2.7;;
80910;SDS011;70359;51.420;7.032;2023-06-10T02:47:30;3.3;;;3;;
80910;SDS011;70359;51.420;7.032;2023-06-10T02:49:55;3.3;;;3;;
80910;SDS011;70359;51.420;7.032;2023-06-10T02:52:20;2.5;;;2.3;;
80910;SDS011;70359;51.420;7.032;2023-06-10T02:54:45;2.5;;;2.3;;
80910;SDS011;70359;51.420;7.032;2023-06-10T02:57:14;5.4;;;2.9;;
80910;SDS011;70359;51.420;7.032;2023-06-10T02:59:35;5.4;;;2.9;;
80910;SDS011;70359;51.420;7.032;2023-06-10T03:02:00;3;;;2.8;;
80910;SDS011;70359;51.420;7.032;2023-06-10T03:04:25;3;;;2.8;;
80910;SDS011;70359;51.420;7.032;2023-06-10T03:06:50;3;;;2.8;;
80910;SDS011;70359;51.420;7.032;2023-06-10T03:09:15;3;;;2.8;;
80910;SDS011;70359;51.420;7.032;2023-06-10T03:11:40;3;;;2.8;;
80910;SDS011;70359;51.420;7.032;2023-06-10T03:14:05;3.3;;;3;;
80910;SDS011;70359;51.420;7.032;2023-06-10T03:16:30;3.3;;;3;;
80910;SDS011;70359;51.420;7.032;2023-06-10T03:18:59;3.1;;;2.8;;
80910;SDS011;70359;51.420;7.032;2023-06-10T03:21:20;3.1;;;2.8;;
80910;SDS011;70359;51.420;7.032;2023-06-10T03:23:49;3.5;;;2.8;;
80910;SDS011;70359;51.420;7.032;2023-06-10T03:26:10;3.5;;;2.8;;
80910;SDS011;70359;51.420;7.032;2023-06-10T03:28:35;3.7;;;3.4;;
80910;SDS011;70359;51.420;7.032;2023-06-10T03:31:04;3.7;;;3.4;;
80910;SDS011;70359;51.420;7.032;2023-06-10T03:33:25;4;;;3.3;;
80910;SDS011;70359;51.420;7.032;2023-06-10T03:35:50;4;;;3.3;;
80910;SDS011;70359;51.420;7.032;2023-06-10T03:38:15;3.8;;;3.4;;
80910;SDS011;70359;51.420;7.032;2023-06-10T03:40:40;3.8;;;3.4;;
80910;SDS011;70359;51.420;7.032;2023-06-10T03:43:05;4;;;3.6;;
80910;SDS011;70359;51.420;7.032;2023-06-10T03:45:30;4;;;3.6;;
80910;SDS011;70359;51.420;7.032;2023-06-10T03:47:56;3.8;;;3.4;;
80910;SDS011;70359;51.420;7.032;2023-06-10T03:50:20;3.8;;;3.4;;
80910;SDS011;70359;51.420;7.032;2023-06-10T03:52:45;3.7;;;3.3;;
80910;SDS011;70359;51.420;7.032;2023-06-10T03:55:10;3.7;;;3.3;;
80910;SDS011;70359;51.420;7.032;2023-06-10T03:57:35;3.9;;;3.6;;
80910;SDS011;70359;51.420;7.032;2023-06-10T04:00:00;3.9;;;3.6;;
80910;SDS011;70359;51.420;7.032;2023-06-10T04:02:25;3.8;;;3.5;;
80910;SDS011;70359;51.420;7.032;2023-06-10T04:04:54;3.8;;;3.5;;
80910;SDS011;70359;51.420;7.032;2023-06-10T04:07:15;4;;;3.6;;
80910;SDS011;70359;51.420;7.032;2023-06-10T04:09:44;4;;;3.6;;
80910;SDS011;70359;51.420;7.032;2023-06-10T04:12:13;3.8;;;3.5;;
80910;SDS011;70359;51.420;7.032;2023-06-10T04:14:30;3.8;;;3.5;;
80910;SDS011;70359;51.420;7.032;2023-06-10T04:16:59;4.2;;;3.9;;
80910;SDS011;70359;51.420;7.032;2023-06-10T04:19:20;4.2;;;3.9;;
80910;SDS011;70359;51.420;7.032;2023-06-10T04:21:45;4.2;;;3.9;;
80910;SDS011;70359;51.420;7.032;2023-06-10T04:24:10;3.8;;;3.5;;
80910;SDS011;70359;51.420;7.032;2023-06-10T04:26:35;3.8;;;3.5;;
80910;SDS011;70359;51.420;7.032;2023-06-10T04:29:00;4;;;3.7;;
80910;SDS011;70359;51.420;7.032;2023-06-10T04:31:25;4;;;3.7;;
80910;SDS011;70359;51.420;7.032;2023-06-10T04:33:50;4.1;;;3.8;;
80910;SDS011;70359;51.420;7.032;2023-06-10T04:36:15;4.1;;;3.8;;
80910;SDS011;70359;51.420;7.032;2023-06-10T04:38:44;4.8;;;4.3;;
80910;SDS011;70359;51.420;7.032;2023-06-10T04:41:05;4.8;;;4.3;;
80910;SDS011;70359;51.420;7.032;2023-06-10T04:43:30;5.3;;;4.7;;
80910;SDS011;70359;51.420;7.032;2023-06-10T04:45:55;5.3;;;4.7;;
80910;SDS011;70359;51.420;7.032;2023-06-10T04:48:20;4;;;3.7;;
80910;SDS011;70359;51.420;7.032;2023-06-10T04:50:45;4;;;3.7;;
80910;SDS011;70359;51.420;7.032;2023-06-10T04:53:10;4.7;;;4.3;;
80910;SDS011;70359;51.420;7.032;2023-06-10T04:55:35;4.7;;;4.3;;
80910;SDS011;70359;51.420;7.032;2023-06-10T04:58:00;5.3;;;3.7;;
80910;SDS011;70359;51.420;7.032;2023-06-10T05:00:25;5.3;;;3.7;;
80910;SDS011;70359;51.420;7.032;2023-06-10T05:02:50;4.2;;;3.9;;
80910;SDS011;70359;51.420;7.032;2023-06-10T05:05:15;4.2;;;3.9;;
80910;SDS011;70359;51.420;7.032;2023-06-10T05:07:40;4.5;;;4.1;;
80910;SDS011;70359;51.420;7.032;2023-06-10T05:10:06;4.5;;;4.1;;
80910;SDS011;70359;51.420;7.032;2023-06-10T05:12:30;4;;;3.6;;
80910;SDS011;70359;51.420;7.032;2023-06-10T05:14:55;4;;;3.6;;
80910;SDS011;70359;51.420;7.032;2023-06-10T05:17:20;9.8;;;3.8;;
80910;SDS011;70359;51.420;7.032;2023-06-10T05:19:45;9.8;;;3.8;;
80910;SDS011;70359;51.420;7.032;2023-06-10T05:22:10;4;;;3.7;;
80910;SDS011;70359;51.420;7.032;2023-06-10T05:24:35;4;;;3.7;;
80910;SDS011;70359;51.420;7.032;2023-06-10T05:27:10;4;;;3.7;;
80910;SDS011;70359;51.420;7.032;2023-06-10T05:29:29;4;;;3.7;;
80910;SDS011;70359;51.420;7.032;2023-06-10T05:31:54;4;;;3.7;;
80910;SDS011;70359;51.420;7.032;2023-06-10T05:34:15;4.4;;;4;;
80910;SDS011;70359;51.420;7.032;2023-06-10T05:36:40;4.4;;;4;;
80910;SDS011;70359;51.420;7.032;2023-06-10T05:39:05;4.3;;;3.8;;
80910;SDS011;70359;51.420;7.032;2023-06-10T05:41:34;4.3;;;3.8;;
80910;SDS011;70359;51.420;7.032;2023-06-10T05:43:55;3.4;;;3.1;;
80910;SDS011;70359;51.420;7.032;2023-06-10T05:46:20;3.4;;;3.1;;
80910;SDS011;70359;51.420;7.032;2023-06-10T05:48:45;3.6;;;3.3;;
80910;SDS011;70359;51.420;7.032;2023-06-10T05:51:10;3.6;;;3.3;;
80910;SDS011;70359;51.420;7.032;2023-06-10T05:53:39;4.4;;;4;;
80910;SDS011;70359;51.420;7.032;2023-06-10T05:56:00;4.4;;;4;;
80910;SDS011;70359;51.420;7.032;2023-06-10T05:58:25;3.7;;;3.4;;
80910;SDS011;70359;51.420;7.032;2023-06-10T06:00:54;3.7;;;3.4;;
80910;SDS011;70359;51.420;7.032;2023-06-10T06:03:19;3.9;;;3.6;;
80910;SDS011;70359;51.420;7.032;2023-06-10T06:05:40;3.9;;;3.6;;
80910;SDS011;70359;51.420;7.032;2023-06-10T06:08:05;3.5;;;3.2;;
80910;SDS011;70359;51.420;7.032;2023-06-10T06:10:30;3.5;;;3.2;;
80910;SDS011;70359;51.420;7.032;2023-06-10T06:12:55;3.2;;;3;;
80910;SDS011;70359;51.420;7.032;2023-06-10T06:15:20;3.2;;;3;;
80910;SDS011;70359;51.420;7.032;2023-06-10T06:17:45;3.8;;;3.5;;
80910;SDS011;70359;51.420;7.032;2023-06-10T06:20:11;3.8;;;3.5;;
80910;SDS011;70359;51.420;7.032;2023-06-10T06:22:35;3.3;;;3;;
80910;SDS011;70359;51.420;7.032;2023-06-10T06:25:05;3.3;;;3;;
80910;SDS011;70359;51.420;7.032;2023-06-10T06:27:25;2.8;;;2.6;;
80910;SDS011;70359;51.420;7.032;2023-06-10T06:29:50;2.8;;;2.6;;
80910;SDS011;70359;51.420;7.032;2023-06-10T06:32:15;3.2;;;2.9;;
80910;SDS011;70359;51.420;7.032;2023-06-10T06:34:40;3.2;;;2.9;;
80910;SDS011;70359;51.420;7.032;2023-06-10T06:37:05;3.8;;;3;;
80910;SDS011;70359;51.420;7.032;2023-06-10T06:39:30;3.8;;;3;;
80910;SDS011;70359;51.420;7.032;2023-06-10T06:41:55;3.8;;;3;;
80910;SDS011;70359;51.420;7.032;2023-06-10T06:44:20;3.4;;;2.6;;
80910;SDS011;70359;51.420;7.032;2023-06-10T06:46:45;3.4;;;2.6;;
80910;SDS011;70359;51.420;7.032;2023-06-10T06:49:10;2.9;;;2.7;;
80910;SDS011;70359;51.420;7.032;2023-06-10T06:51:39;2.9;;;2.7;;
80910;SDS011;70359;51.420;7.032;2023-06-10T06:54:00;2.4;;;2.2;;
80910;SDS011;70359;51.420;7.032;2023-06-10T06:56:25;2.4;;;2.2;;
80910;SDS011;70359;51.420;7.032;2023-06-10T06:58:50;2.6;;;2.4;;
80910;SDS011;70359;51.420;7.032;2023-06-10T07:01:15;2.6;;;2.4;;
80910;SDS011;70359;51.420;7.032;2023-06-10T07:03:41;2.5;;;2.3;;
80910;SDS011;70359;51.420;7.032;2023-06-10T07:06:05;2.5;;;2.3;;
80910;SDS011;70359;51.420;7.032;2023-06-10T07:08:30;2.6;;;2.4;;
80910;SDS011;70359;51.420;7.032;2023-06-10T07:10:55;2.6;;;2.4;;
80910;SDS011;70359;51.420;7.032;2023-06-10T07:13:20;2.5;;;2.3;;
80910;SDS011;70359;51.420;7.032;2023-06-10T07:15:45;2.5;;;2.3;;
80910;SDS011;70359;51.420;7.032;2023-06-10T07:18:10;1.7;;;1.6;;
80910;SDS011;70359;51.420;7.032;2023-06-10T07:20:35;1.7;;;1.6;;
80910;SDS011;70359;51.420;7.032;2023-06-10T07:23:01;2.3;;;2.1;;
80910;SDS011;70359;51.420;7.032;2023-06-10T07:25:25;2.3;;;2.1;;
80910;SDS011;70359;51.420;7.032;2023-06-10T07:27:50;3.4;;;2.5;;
80910;SDS011;70359;51.420;7.032;2023-06-10T07:30:16;3.4;;;2.5;;
80910;SDS011;70359;51.420;7.032;2023-06-10T07:32:40;2.6;;;2.4;;
80910;SDS011;70359;51.420;7.032;2023-06-10T07:35:08;2.6;;;2.4;;
80910;SDS011;70359;51.420;7.032;2023-06-10T07:37:30;2.6;;;2.4;;
80910;SDS011;70359;51.420;7.032;2023-06-10T07:39:55;2.6;;;2.4;;
80910;SDS011;70359;51.420;7.032;2023-06-10T07:42:24;2.3;;;2.1;;
80910;SDS011;70359;51.420;7.032;2023-06-10T07:44:49;2.3;;;2.1;;
80910;SDS011;70359;51.420;7.032;2023-06-10T07:47:26;5;;;3.1;;
80910;SDS011;70359;51.420;7.032;2023-06-10T07:49:36;5;;;3.1;;
80910;SDS011;70359;51.420;7.032;2023-06-10T07:52:00;5;;;3.1;;
80910;SDS011;70359;51.420;7.032;2023-06-10T07:54:30;3.4;;;2.4;;
80910;SDS011;70359;51.420;7.032;2023-06-10T07:56:50;3.4;;;2.4;;
80910;SDS011;70359;51.420;7.032;2023-06-10T07:59:16;2.1;;;2;;
80910;SDS011;70359;51.420;7.032;2023-06-10T08:01:40;2.1;;;2;;
80910;SDS011;70359;51.420;7.032;2023-06-10T08:04:06;1.9;;;1.8;;
80910;SDS011;70359;51.420;7.032;2023-06-10T08:06:35;1.9;;;1.8;;
80910;SDS011;70359;51.420;7.032;2023-06-10T08:08:56;2.2;;;2;;
80910;SDS011;70359;51.420;7.032;2023-06-10T08:11:21;2.2;;;2;;
80910;SDS011;70359;51.420;7.032;2023-06-10T08:13:46;2.8;;;2.6;;
80910;SDS011;70359;51.420;7.032;2023-06-10T08:16:11;2.8;;;2.6;;
80910;SDS011;70359;51.420;7.032;2023-06-10T08:18:40;2.1;;;1.9;;
80910;SDS011;70359;51.420;7.032;2023-06-10T08:21:01;2.1;;;1.9;;
80910;SDS011;70359;51.420;7.032;2023-06-10T08:23:26;2.2;;;2;;
80910;SDS011;70359;51.420;7.032;2023-06-10T08:25:51;2.2;;;2;;
80910;SDS011;70359;51.420;7.032;2023-06-10T08:28:16;2.1;;;1.9;;
80910;SDS011;70359;51.420;7.032;2023-06-10T08:30:41;2.1;;;1.9;;
80910;SDS011;70359;51.420;7.032;2023-06-10T08:33:06;2.7;;;2.5;;
80910;SDS011;70359;51.420;7.032;2023-06-10T08:35:31;2.7;;;2.5;;
80910;SDS011;70359;51.420;7.032;2023-06-10T08:37:56;3.9;;;2.6;;
80910;SDS011;70359;51.420;7.032;2023-06-10T08:40:21;3.9;;;2.6;;
80910;SDS011;70359;51.420;7.032;2023-06-10T08:42:50;2;;;1.9;;
80910;SDS011;70359;51.420;7.032;2023-06-10T08:45:16;2;;;1.9;;
80910;SDS011;70359;51.420;7.032;2023-06-10T08:47:38;2.1;;;1.9;;
80910;SDS011;70359;51.420;7.032;2023-06-10T08:50:03;2.1;;;1.9;;
80910;SDS011;70359;51.420;7.032;2023-06-10T08:52:42;2.2;;;2;;
80910;SDS011;70359;51.420;7.032;2023-06-10T08:54:54;2.2;;;2;;
80910;SDS011;70359;51.420;7.032;2023-06-10T08:57:21;2.2;;;2;;
80910;SDS011;70359;51.420;7.032;2023-06-10T08:59:41;3.3;;;2.1;;
80910;SDS011;70359;51.420;7.032;2023-06-10T09:02:07;3.3;;;2.1;;
80910;SDS011;70359;51.420;7.032;2023-06-10T09:04:31;1.9;;;1.8;;
80910;SDS011;70359;51.420;7.032;2023-06-10T09:07:00;1.9;;;1.8;;
80910;SDS011;70359;51.420;7.032;2023-06-10T09:09:26;2;;;1.9;;
80910;SDS011;70359;51.420;7.032;2023-06-10T09:11:46;2;;;1.9;;
80910;SDS011;70359;51.420;7.032;2023-06-10T09:14:11;2.6;;;2.4;;
80910;SDS011;70359;51.420;7.032;2023-06-10T09:16:38;2.6;;;2.4;;
80910;SDS011;70359;51.420;7.032;2023-06-10T09:19:01;2;;;1.9;;
80910;SDS011;70359;51.420;7.032;2023-06-10T09:21:26;2;;;1.9;;
80910;SDS011;70359;51.420;7.032;2023-06-10T09:23:51;2.6;;;2.4;;
80910;SDS011;70359;51.420;7.032;2023-06-10T09:26:16;2.6;;;2.4;;
80910;SDS011;70359;51.420;7.032;2023-06-10T09:28:41;2.3;;;2.1;;
80910;SDS011;70359;51.420;7.032;2023-06-10T09:31:06;2.3;;;2.1;;
80910;SDS011;70359;51.420;7.032;2023-06-10T09:33:31;2.6;;;2.2;;
80910;SDS011;70359;51.420;7.032;2023-06-10T09:35:56;2.6;;;2.2;;
80910;SDS011;70359;51.420;7.032;2023-06-10T09:38:23;2.3;;;2.1;;
80910;SDS011;70359;51.420;7.032;2023-06-10T09:40:53;2.3;;;2.1;;
80910;SDS011;70359;51.420;7.032;2023-06-10T09:43:11;2.1;;;2;;
80910;SDS011;70359;51.420;7.032;2023-06-10T09:45:36;2.1;;;2;;
80910;SDS011;70359;51.420;7.032;2023-06-10T09:48:01;2.1;;;2;;
80910;SDS011;70359;51.420;7.032;2023-06-10T09:50:26;2.1;;;2;;
80910;SDS011;70359;51.420;7.032;2023-06-10T09:52:51;2.4;;;2.2;;
80910;SDS011;70359;51.420;7.032;2023-06-10T09:55:16;2.4;;;2.2;;
80910;SDS011;70359;51.420;7.032;2023-06-10T09:57:41;2.6;;;2.4;;
80910;SDS011;70359;51.420;7.032;2023-06-10T10:00:09;2.6;;;2.4;;
80910;SDS011;70359;51.420;7.032;2023-06-10T10:02:32;4.5;;;2.1;;
80910;SDS011;70359;51.420;7.032;2023-06-10T10:05:01;4.5;;;2.1;;
80910;SDS011;70359;51.420;7.032;2023-06-10T10:07:21;4.5;;;2.1;;
80910;SDS011;70359;51.420;7.032;2023-06-10T10:09:46;2.1;;;1.9;;
80910;SDS011;70359;51.420;7.032;2023-06-10T10:12:13;2.1;;;1.9;;
80910;SDS011;70359;51.420;7.032;2023-06-10T10:14:36;2.4;;;2.2;;
80910;SDS011;70359;51.420;7.032;2023-06-10T10:17:02;2.4;;;2.2;;
80910;SDS011;70359;51.420;7.032;2023-06-10T10:19:28;2.4;;;2.2;;
80910;SDS011;70359;51.420;7.032;2023-06-10T10:21:53;2.4;;;2.2;;
80910;SDS011;70359;51.420;7.032;2023-06-10T10:24:19;2.6;;;2.4;;
80910;SDS011;70359;51.420;7.032;2023-06-10T10:26:41;2.6;;;2.4;;
80910;SDS011;70359;51.420;7.032;2023-06-10T10:29:11;2.2;;;2;;
80910;SDS011;70359;51.420;7.032;2023-06-10T10:31:32;2.2;;;2;;
80910;SDS011;70359;51.420;7.032;2023-06-10T10:33:58;2.2;;;2;;
80910;SDS011;70359;51.420;7.032;2023-06-10T10:36:21;2.2;;;2;;
80910;SDS011;70359;51.420;7.032;2023-06-10T10:38:47;2.9;;;2.2;;
80910;SDS011;70359;51.420;7.032;2023-06-10T10:41:12;2.9;;;2.2;;
80910;SDS011;70359;51.420;7.032;2023-06-10T10:43:36;2.6;;;2.2;;
80910;SDS011;70359;51.420;7.032;2023-06-10T10:46:03;2.6;;;2.2;;
80910;SDS011;70359;51.420;7.032;2023-06-10T10:48:26;2.6;;;2.4;;
80910;SDS011;70359;51.420;7.032;2023-06-10T10:50:59;2.6;;;2.4;;
80910;SDS011;70359;51.420;7.032;2023-06-10T10:53:19;2.6;;;2.4;;
80910;SDS011;70359;51.420;7.032;2023-06-10T10:55:41;2.6;;;2.4;;
80910;SDS011;70359;51.420;7.032;2023-06-10T10:58:07;2.4;;;2.2;;
80910;SDS011;70359;51.420;7.032;2023-06-10T11:00:32;2.4;;;2.2;;
80910;SDS011;70359;51.420;7.032;2023-06-10T11:02:57;2.4;;;2.2;;
80910;SDS011;70359;51.420;7.032;2023-06-10T11:05:31;2.4;;;2.2;;
80910;SDS011;70359;51.420;7.032;2023-06-10T11:07:55;2.5;;;2.3;;
80910;SDS011;70359;51.420;7.032;2023-06-10T11:10:12;2.5;;;2.3;;
80910;SDS011;70359;51.420;7.032;2023-06-10T11:12:53;2.5;;;2.3;;
80910;SDS011;70359;51.420;7.032;2023-06-10T11:15:01;2.3;;;2.2;;
80910;SDS011;70359;51.420;7.032;2023-06-10T11:17:26;2.3;;;2.2;;
80910;SDS011;70359;51.420;7.032;2023-06-10T11:19:55;2.2;;;2;;
80910;SDS011;70359;51.420;7.032;2023-06-10T11:22:23;2.2;;;2;;
80910;SDS011;70359;51.420;7.032;2023-06-10T11:24:41;3.9;;;2.3;;
80910;SDS011;70359;51.420;7.032;2023-06-10T11:27:19;3.9;;;2.3;;
80910;SDS011;70359;51.420;7.032;2023-06-10T11:29:35;2.5;;;2.3;;
80910;SDS011;70359;51.420;7.032;2023-06-10T11:32:01;2.5;;;2.3;;
80910;SDS011;70359;51.420;7.032;2023-06-10T11:34:25;2.5;;;2.3;;
80910;SDS011;70359;51.420;7.032;2023-06-10T11:36:46;2.5;;;2.3;;
80910;SDS011;70359;51.420;7.032;2023-06-10T11:39:15;2.2;;;2.1;;
80910;SDS011;70359;51.420;7.032;2023-06-10T11:41:38;2.2;;;2.1;;
80910;SDS011;70359;51.420;7.032;2023-06-10T11:44:03;2.2;;;2.1;;
80910;SDS011;70359;51.420;7.032;2023-06-10T11:46:26;2.2;;;2.1;;
80910;SDS011;70359;51.420;7.032;2023-06-10T11:48:56;2.8;;;2.5;;
80910;SDS011;70359;51.420;7.032;2023-06-10T11:51:20;2.8;;;2.5;;
80910;SDS011;70359;51.420;7.032;2023-06-10T11:53:43;2.3;;;2.1;;
80910;SDS011;70359;51.420;7.032;2023-06-10T11:56:06;2.3;;;2.1;;
80910;SDS011;70359;51.420;7.032;2023-06-10T11:58:31;2.3;;;2.1;;
80910;SDS011;70359;51.420;7.032;2023-06-10T12:00:56;2.3;;;2.1;;
80910;SDS011;70359;51.420;7.032;2023-06-10T12:03:21;4.5;;;2.5;;
80910;SDS011;70359;51.420;7.032;2023-06-10T12:06:03;4.5;;;2.5;;
80910;SDS011;70359;51.420;7.032;2023-06-10T12:08:12;2.7;;;2.5;;
80910;SDS011;70359;51.420;7.032;2023-06-10T12:10:38;2.7;;;2.5;;
80910;SDS011;70359;51.420;7.032;2023-06-10T12:13:01;2.8;;;2.6;;
80910;SDS011;70359;51.420;7.032;2023-06-10T12:15:27;2.8;;;2.6;;
80910;SDS011;70359;51.420;7.032;2023-06-10T12:17:53;2.5;;;2.3;;
80910;SDS011;70359;51.420;7.032;2023-06-10T12:20:29;2.5;;;2.3;;
80910;SDS011;70359;51.420;7.032;2023-06-10T12:22:43;2.5;;;2.3;;
80910;SDS011;70359;51.420;7.032;2023-06-10T12:25:08;2.9;;;2.6;;
80910;SDS011;70359;51.420;7.032;2023-06-10T12:27:32;2.9;;;2.6;;
80910;SDS011;70359;51.420;7.032;2023-06-10T12:29:57;4;;;2.5;;
80910;SDS011;70359;51.420;7.032;2023-06-10T12:32:34;4;;;2.5;;
80910;SDS011;70359;51.420;7.032;2023-06-10T12:34:46;2.7;;;2.5;;
80910;SDS011;70359;51.420;7.032;2023-06-10T12:37:13;2.7;;;2.5;;
80910;SDS011;70359;51.420;7.032;2023-06-10T12:39:36;2.5;;;2.3;;
80910;SDS011;70359;51.420;7.032;2023-06-10T12:42:01;2.5;;;2.3;;
80910;SDS011;70359;51.420;7.032;2023-06-10T12:44:34;4;;;2.5;;
80910;SDS011;70359;51.420;7.032;2023-06-10T12:46:57;4;;;2.5;;
80910;SDS011;70359;51.420;7.032;2023-06-10T12:49:22;2;;;1.9;;
80910;SDS011;70359;51.420;7.032;2023-06-10T12:51:41;2;;;1.9;;
80910;SDS011;70359;51.420;7.032;2023-06-10T12:54:06;2.5;;;2.3;;
80910;SDS011;70359;51.420;7.032;2023-06-10T12:56:31;2.5;;;2.3;;
80910;SDS011;70359;51.420;7.032;2023-06-10T12:58:56;3.3;;;2.7;;
80910;SDS011;70359;51.420;7.032;2023-06-10T13:01:25;3.3;;;2.7;;
80910;SDS011;70359;51.420;7.032;2023-06-10T13:03:49;2.8;;;2.6;;
80910;SDS011;70359;51.420;7.032;2023-06-10T13:06:15;2.8;;;2.6;;
80910;SDS011;70359;51.420;7.032;2023-06-10T13:08:36;2.5;;;2.3;;
80910;SDS011;70359;51.420;7.032;2023-06-10T13:11:01;2.5;;;2.3;;
80910;SDS011;70359;51.420;7.032;2023-06-10T13:13:26;2.9;;;2.7;;
80910;SDS011;70359;51.420;7.032;2023-06-10T13:15:51;2.9;;;2.7;;
80910;SDS011;70359;51.420;7.032;2023-06-10T13:18:20;2.4;;;2.2;;
80910;SDS011;70359;51.420;7.032;2023-06-10T13:20:45;2.4;;;2.2;;
80910;SDS011;70359;51.420;7.032;2023-06-10T13:23:17;2.2;;;2.1;;
80910;SDS011;70359;51.420;7.032;2023-06-10T13:25:31;2.2;;;2.1;;
80910;SDS011;70359;51.420;7.032;2023-06-10T13:28:00;2.2;;;2.1;;
80910;SDS011;70359;51.420;7.032;2023-06-10T13:30:21;2.2;;;2;;
80910;SDS011;70359;51.420;7.032;2023-06-10T13:32:46;2.2;;;2;;
80910;SDS011;70359;51.420;7.032;2023-06-10T13:35:11;3;;;2.8;;
80910;SDS011;70359;51.420;7.032;2023-06-10T13:37:36;3;;;2.8;;
80910;SDS011;70359;51.420;7.032;2023-06-10T13:40:02;3.4;;;2.8;;
80910;SDS011;70359;51.420;7.032;2023-06-10T13:42:26;3.4;;;2.8;;
80910;SDS011;70359;51.420;7.032;2023-06-10T13:44:55;2.6;;;2.4;;
80910;SDS011;70359;51.420;7.032;2023-06-10T13:47:16;2.6;;;2.4;;
80910;SDS011;70359;51.420;7.032;2023-06-10T13:49:41;2.6;;;2.4;;
80910;SDS011;70359;51.420;7.032;2023-06-10T13:52:07;2.6;;;2.4;;
80910;SDS011;70359;51.420;7.032;2023-06-10T13:54:31;2.8;;;2.4;;
80910;SDS011;70359;51.420;7.032;2023-06-10T13:56:56;2.8;;;2.4;;
80910;SDS011;70359;51.420;7.032;2023-06-10T13:59:22;2.6;;;2.4;;
80910;SDS011;70359;51.420;7.032;2023-06-10T14:01:46;2.6;;;2.4;;
80910;SDS011;70359;51.420;7.032;2023-06-10T14:04:15;2.5;;;2.3;;
80910;SDS011;70359;51.420;7.032;2023-06-10T14:06:36;2.5;;;2.3;;
80910;SDS011;70359;51.420;7.032;2023-06-10T14:09:01;7.4;;;2.6;;
80910;SDS011;70359;51.420;7.032;2023-06-10T14:11:26;7.4;;;2.6;;
80910;SDS011;70359;51.420;7.032;2023-06-10T14:13:51;2.7;;;2.5;;
80910;SDS011;70359;51.420;7.032;2023-06-10T14:16:17;2.7;;;2.5;;
80910;SDS011;70359;51.420;7.032;2023-06-10T14:18:45;4.5;;;2.3;;
80910;SDS011;70359;51.420;7.032;2023-06-10T14:21:06;4.5;;;2.3;;
80910;SDS011;70359;51.420;7.032;2023-06-10T14:23:31;2.5;;;2.3;;
80910;SDS011;70359;51.420;7.032;2023-06-10T14:26:00;2.5;;;2.3;;
80910;SDS011;70359;51.420;7.032;2023-06-10T14:28:21;2.4;;;2.2;;
80910;SDS011;70359;51.420;7.032;2023-06-10T14:30:46;2.4;;;2.2;;
80910;SDS011;70359;51.420;7.032;2023-06-10T14:33:11;2.4;;;2.2;;
80910;SDS011;70359;51.420;7.032;2023-06-10T14:35:36;4;;;2.6;;
80910;SDS011;70359;51.420;7.032;2023-06-10T14:38:01;4;;;2.6;;
80910;SDS011;70359;51.420;7.032;2023-06-10T14:40:30;2.7;;;2.5;;
80910;SDS011;70359;51.420;7.032;2023-06-10T14:42:51;2.7;;;2.5;;
80910;SDS011;70359;51.420;7.032;2023-06-10T14:45:17;2.8;;;2.5;;
80910;SDS011;70359;51.420;7.032;2023-06-10T14:47:41;2.8;;;2.5;;
80910;SDS011;70359;51.420;7.032;2023-06-10T14:50:07;2.7;;;2.5;;
80910;SDS011;70359;51.420;7.032;2023-06-10T14:52:31;2.7;;;2.5;;
80910;SDS011;70359;51.420;7.032;2023-06-10T14:54:57;2.3;;;2.1;;
80910;SDS011;70359;51.420;7.032;2023-06-10T14:57:25;2.3;;;2.1;;
80910;SDS011;70359;51.420;7.032;2023-06-10T14:59:47;2.7;;;2.5;;
80910;SDS011;70359;51.420;7.032;2023-06-10T15:02:15;2.7;;;2.5;;
80910;SDS011;70359;51.420;7.032;2023-06-10T15:04:37;3.2;;;3;;
80910;SDS011;70359;51.420;7.032;2023-06-10T15:07:02;3.2;;;3;;